Weather History for Chicopee, MA

Change the Weather History Date:

Monday, June 9, 2014

  Actual Average Record
Temperature  
Mean Temperature 66 °F -  
Max Temperature 73 °F 72 °F 94 °F (2008)
Min Temperature 58 °F 53 °F 48 °F (1997)
Growing Degree Days 16 (Base 50)    
Moisture  
Dew Point 58 °F    
Average Humidity 84    
Maximum Humidity 94    
Minimum Humidity 56    
Precipitation  
Precipitation 0.00 in - - ()
Sea Level Pressure  
Sea Level Pressure 29.97 in    
Wind  
Wind Speed 3 mph (SSE)    
Max Wind Speed 15 mph    
Max Gust Speed -    
Visibility 10 miles    
Events Rain    
Averages and records for this station are not official NWS values.
T = Trace of Precipitation, MM = Missing Value Source: NWS Daily Summary

Daily Weather History Graph

Daily Weather History Graph

Search for Another Location

Airport:

Trip Planner

Search our weather history database for the weather conditions in past years. The results will help you decide how hot, cold, wet, or windy it might be!

Date:

Astronomy

Jun. 09, 2014 Rise Set
Actual Time 5:13 AM EDT 8:25 PM EDT
Civil Twilight 4:39 AM EDT 8:59 PM EDT
Nautical Twilight 3:55 AM EDT 9:43 PM EDT
Astronomical Twilight 3:02 AM EDT 10:37 PM EDT
Moon 4:39 PM EDT (6/9) 2:43 AM EDT (6/9)
Length of Visible Light 16h 20m
Length of Day
15h 11m
Waxing Gibbous, 85% of the Moon is Illuminated
Jun 9
Waxing Gibbous
Jun 13
Full
Jun 19
Last Quarter
Jun 27
New
Jul 5
First Quarter

Hourly Weather History & Observations

Time (EDT) Temp. Dew Point Humidity Pressure Visibility Wind Dir Wind Speed Gust Speed Precip Events Conditions
12:21 AM 66.2 °F 57.2 °F 73% 29.91 in 10.0 mi SSE 5.8 mph - N/A   Light Drizzle
12:27 AM 64.4 °F 57.2 °F 77% 29.91 in 10.0 mi SSE 3.5 mph - N/A   Partly Cloudy
12:35 AM 66.2 °F 55.4 °F 68% 29.91 in 10.0 mi Variable 1.2 mph - N/A   Light Drizzle
12:51 AM 66.2 °F 57.2 °F 73% 29.91 in 9.0 mi SE 1.2 mph - N/A   Scattered Clouds
12:58 AM 65.5 °F 55.9 °F 71% 29.93 in 9.0 mi ENE 1.2 mph - 0.00 in   Scattered Clouds
12:59 AM 66.2 °F 57.2 °F 73% 29.91 in 9.0 mi ESE 1.2 mph - N/A   Light Drizzle
1:08 AM 64.4 °F 55.4 °F 73% 29.91 in 10.0 mi SE 2.3 mph - N/A   Mostly Cloudy
1:15 AM 64.4 °F 55.4 °F 73% 29.91 in 10.0 mi SE 2.3 mph - N/A   Light Drizzle
1:20 AM 64.4 °F 55.4 °F 73% 29.91 in 10.0 mi SE 3.5 mph - N/A   Mostly Cloudy
1:24 AM 64.4 °F 55.4 °F 73% 29.91 in 10.0 mi SE 3.5 mph - N/A   Light Drizzle
1:44 AM 64.4 °F 55.4 °F 73% 29.91 in 10.0 mi SSE 2.3 mph - N/A   Clear
1:58 AM 63.5 °F 55.9 °F 76% 29.93 in 10.0 mi SSE 2.3 mph - 0.00 in   Scattered Clouds
2:41 AM 59.0 °F 55.4 °F 88% 29.91 in 10.0 mi SSE 2.3 mph - N/A Rain Light Rain
2:51 AM 59.0 °F 55.4 °F 88% 29.91 in 10.0 mi Calm Calm - N/A   Mostly Cloudy
2:58 AM 58.5 °F 56.1 °F 92% 29.93 in 10.0 mi Calm Calm - 0.00 in   Overcast
3:26 AM 59.0 °F 57.2 °F 94% 29.91 in 10.0 mi NNE 2.3 mph - N/A Rain Light Rain
3:36 AM 59.0 °F 57.2 °F 94% 29.91 in 10.0 mi NNE 2.3 mph - N/A   Overcast
3:58 AM 58.8 °F 56.8 °F 93% 29.94 in 10.0 mi ENE 1.2 mph - 0.00 in   Mostly Cloudy
4:34 AM 59.0 °F 57.2 °F 94% 29.93 in 10.0 mi Calm Calm - N/A   Light Drizzle
4:43 AM 59.0 °F 57.2 °F 94% 29.92 in 10.0 mi ENE 1.2 mph - N/A   Mostly Cloudy
4:58 AM 58.3 °F 56.5 °F 94% 29.94 in 10.0 mi SE 1.2 mph - 0.00 in   Mostly Cloudy
5:58 AM 59.7 °F 57.9 °F 94% 29.95 in 10.0 mi South 3.5 mph - N/A   Mostly Cloudy
6:31 AM 62.6 °F 59.0 °F 88% 29.95 in 10.0 mi SSW 2.3 mph - N/A Rain Light Rain
6:43 AM 64.4 °F 59.0 °F 83% 29.95 in 10.0 mi SSW 5.8 mph - N/A   Partly Cloudy
6:58 AM 64.4 °F 58.6 °F 82% 29.97 in 10.0 mi SSW 5.8 mph - 0.00 in   Clear
7:53 AM 66.2 °F 59.0 °F 78% 29.96 in 10.0 mi South 4.6 mph - N/A   Light Drizzle
7:58 AM 65.7 °F 59.4 °F 80% 29.98 in 10.0 mi South 5.8 mph - 0.00 in Rain Light Rain
8:15 AM 66.2 °F 59.0 °F 78% 29.97 in 10.0 mi South 5.8 mph - N/A   Mostly Cloudy
8:58 AM 66.6 °F 60.4 °F 81% 29.98 in 10.0 mi South 4.6 mph - 0.00 in   Mostly Cloudy
9:58 AM 68.9 °F 60.8 °F 75% 29.98 in 10.0 mi SSW 4.6 mph - 0.00 in   Mostly Cloudy
10:58 AM 72.7 °F 59.0 °F 62% 29.99 in 10.0 mi Variable 5.8 mph - N/A   Scattered Clouds
11:58 AM 73.2 °F 57.2 °F 57% 29.99 in 10.0 mi SSW 5.8 mph - N/A   Mostly Cloudy
12:58 PM 73.6 °F 56.8 °F 56% 29.99 in 10.0 mi SSW 2.3 mph - N/A   Mostly Cloudy
1:58 PM 71.1 °F 58.5 °F 64% 29.99 in 10.0 mi SSW 6.9 mph - N/A   Mostly Cloudy
2:48 PM 69.8 °F 59.0 °F 68% 29.98 in 10.0 mi SSW 10.4 mph - N/A   Light Drizzle
3:04 PM 68.0 °F 60.8 °F 78% 29.98 in 10.0 mi SW 9.2 mph - N/A   Overcast
3:58 PM 68.4 °F 58.8 °F 71% 30.00 in 10.0 mi SSW 9.2 mph - 0.00 in   Overcast
4:18 PM 66.2 °F 59.0 °F 78% 29.99 in 10.0 mi SW 15.0 mph - N/A   Overcast
4:47 PM 64.4 °F 55.4 °F 73% 30.00 in 10.0 mi SSW 5.8 mph - N/A   Mostly Cloudy
4:58 PM 63.7 °F 56.3 °F 77% 30.01 in 10.0 mi Variable 2.3 mph - N/A   Overcast
5:58 PM 63.5 °F 56.7 °F 78% 30.01 in 10.0 mi Calm Calm - N/A   Overcast
6:52 PM 64.4 °F 57.2 °F 77% 29.99 in 10.0 mi SE 2.3 mph - N/A   Overcast
6:58 PM 63.7 °F 57.9 °F 81% 30.01 in 10.0 mi SSE 1.2 mph - N/A   Overcast
7:04 PM 64.4 °F 57.2 °F 77% 30.00 in 10.0 mi SSE 2.3 mph - N/A   Overcast
7:58 PM 62.4 °F 58.6 °F 87% 30.01 in 10.0 mi SSE 2.3 mph - N/A   Overcast
8:05 PM 62.6 °F 59.0 °F 88% 29.99 in 10.0 mi SSE 1.2 mph - N/A   Overcast
8:46 PM 62.6 °F 59.0 °F 88% 29.99 in 10.0 mi Variable 2.3 mph - N/A   Overcast
8:49 PM 62.6 °F 59.0 °F 88% 29.99 in 10.0 mi Variable 2.3 mph - N/A   Overcast
8:50 PM 60.8 °F 59.0 °F 94% 29.99 in 10.0 mi SSE 2.3 mph - N/A   Overcast
8:51 PM 60.8 °F 59.0 °F 94% 29.99 in 10.0 mi SSE 2.3 mph - N/A   Overcast
8:52 PM 60.8 °F 59.0 °F 94% 29.99 in 10.0 mi SSE 2.3 mph - N/A   Overcast
8:58 PM 61.5 °F 59.7 °F 94% 30.01 in 10.0 mi SSE 2.3 mph - N/A   Overcast
9:20 PM 60.8 °F 59.0 °F 94% 29.99 in 10.0 mi Calm Calm - N/A   Light Drizzle
9:29 PM 60.8 °F 59.0 °F 94% 29.99 in 10.0 mi ESE 1.2 mph - N/A   Mostly Cloudy
9:30 PM 60.8 °F 59.0 °F 94% 29.99 in 10.0 mi East 1.2 mph - N/A   Mostly Cloudy
9:32 PM 62.6 °F 59.0 °F 88% 29.99 in 10.0 mi Calm Calm - N/A   Light Drizzle
9:38 PM 62.6 °F 59.0 °F 88% 29.99 in 10.0 mi Calm Calm - N/A   Light Drizzle
9:40 PM 62.6 °F 59.0 °F 88% 29.99 in 10.0 mi Calm Calm - N/A   Light Drizzle
9:41 PM 62.6 °F 59.0 °F 88% 29.99 in 10.0 mi Calm Calm - N/A   Overcast
9:45 PM 62.6 °F 59.0 °F 88% 29.99 in 10.0 mi Calm Calm - N/A   Overcast
9:47 PM 62.6 °F 59.0 °F 88% 29.99 in 10.0 mi Calm Calm - N/A   Overcast
9:48 PM 62.6 °F 59.0 °F 88% 29.99 in 10.0 mi Calm Calm - N/A   Overcast
9:49 PM 62.6 °F 59.0 °F 88% 29.99 in 10.0 mi Calm Calm - N/A   Overcast
9:50 PM 62.6 °F 59.0 °F 88% 29.99 in 10.0 mi North - - N/A   Overcast
9:53 PM 62.6 °F 59.0 °F 88% 29.99 in 10.0 mi Calm Calm - N/A   Overcast
9:54 PM 62.6 °F 59.0 °F 88% 30.00 in 10.0 mi Calm Calm - N/A   Overcast
9:58 PM 61.9 °F 59.9 °F 93% 30.02 in 10.0 mi Calm Calm - 0.00 in   Overcast
10:01 PM 62.6 °F 59.0 °F 88% 29.99 in 10.0 mi Calm Calm - N/A   Light Drizzle
10:02 PM 62.6 °F 59.0 °F 88% 29.99 in 10.0 mi Calm Calm - N/A   Light Drizzle
10:07 PM 62.6 °F 59.0 °F 88% 29.99 in 10.0 mi ESE 1.2 mph - N/A   Overcast
10:09 PM 62.6 °F 59.0 °F 88% 29.99 in 10.0 mi ESE 1.2 mph - N/A   Light Drizzle
10:12 PM 62.6 °F 59.0 °F 88% 29.99 in 10.0 mi Calm Calm - N/A   Light Drizzle
10:19 PM 62.6 °F 60.8 °F 94% 29.99 in 10.0 mi NE 1.2 mph - N/A   Overcast
10:29 PM 62.6 °F 59.0 °F 88% 29.98 in 10.0 mi East 2.3 mph - N/A Rain Light Rain
10:40 PM 62.6 °F 59.0 °F 88% 29.98 in 10.0 mi Calm Calm - N/A   Light Drizzle
10:47 PM 62.6 °F 60.8 °F 94% 29.98 in 10.0 mi Calm Calm - N/A   Overcast
10:58 PM 62.1 °F 59.9 °F 93% 30.01 in 10.0 mi Calm Calm - 0.00 in   Overcast
11:15 PM 62.6 °F 60.8 °F 94% 29.99 in 10.0 mi Calm Calm - N/A   Overcast
11:37 PM 62.6 °F 59.0 °F 88% 29.99 in 10.0 mi SSW 3.5 mph - N/A   Overcast
11:41 PM 62.6 °F 59.0 °F 88% 29.99 in 10.0 mi SSW 4.6 mph - N/A   Overcast
11:50 PM 62.6 °F 59.0 °F 88% 29.99 in 10.0 mi South 4.6 mph - N/A   Overcast
11:58 PM 62.4 °F 59.7 °F 91% 30.00 in 10.0 mi South 4.6 mph - N/A   Overcast